createdAt,value
2018-10-18T00:00:23.144Z,994.47
2018-10-18T00:01:23.370Z,994.46
2018-10-18T00:02:23.596Z,994.49
2018-10-18T00:03:23.902Z,994.51
2018-10-18T00:04:24.049Z,994.47
2018-10-18T00:05:24.276Z,994.51
2018-10-18T00:06:24.503Z,994.49
2018-10-18T00:07:24.729Z,994.50
2018-10-18T00:08:24.962Z,994.49
2018-10-18T00:09:25.185Z,994.48
2018-10-18T00:10:25.410Z,994.49
2018-10-18T00:11:25.636Z,994.52
2018-10-18T00:12:25.862Z,994.48
2018-10-18T00:13:26.085Z,994.51
2018-10-18T00:14:26.317Z,994.52
2018-10-18T00:15:26.540Z,994.50
2018-10-18T00:16:26.766Z,994.51
2018-10-18T00:17:26.995Z,994.53
2018-10-18T00:18:27.220Z,994.56
2018-10-18T00:19:27.447Z,994.54
2018-10-18T00:20:27.674Z,994.55
2018-10-18T00:21:27.899Z,994.56
2018-10-18T00:22:28.128Z,994.54
2018-10-18T00:23:28.352Z,994.53
2018-10-18T00:24:28.585Z,994.56
2018-10-18T00:25:28.809Z,994.55
2018-10-18T00:26:29.032Z,994.53
2018-10-18T00:27:29.255Z,994.57
2018-10-18T00:28:29.483Z,994.55
2018-10-18T00:29:29.710Z,994.54
2018-10-18T00:30:29.941Z,994.56
2018-10-18T00:31:30.163Z,994.55
2018-10-18T00:32:30.389Z,994.51
2018-10-18T00:33:30.614Z,994.53
2018-10-18T00:34:30.843Z,994.52
2018-10-18T00:35:31.067Z,994.56
2018-10-18T00:36:31.295Z,994.55
2018-10-18T00:37:31.521Z,994.52
2018-10-18T00:38:31.747Z,994.55
2018-10-18T00:39:31.972Z,994.57
2018-10-18T00:40:32.197Z,994.55
2018-10-18T00:41:32.423Z,994.57
2018-10-18T00:42:32.655Z,994.58
2018-10-18T00:43:32.875Z,994.57
2018-10-18T00:44:33.101Z,994.53
2018-10-18T00:45:33.327Z,994.58
2018-10-18T00:46:33.554Z,994.53
2018-10-18T00:47:33.781Z,994.54
2018-10-18T00:48:34.008Z,994.55
2018-10-18T00:49:34.232Z,994.56
2018-10-18T00:50:34.456Z,994.54
2018-10-18T00:51:34.684Z,994.57
2018-10-18T00:52:34.911Z,994.59
2018-10-18T00:53:35.141Z,994.58
2018-10-18T00:54:35.360Z,994.61
2018-10-18T00:55:35.569Z,994.60
2018-10-18T00:56:35.797Z,994.63
2018-10-18T00:57:36.024Z,994.62
2018-10-18T00:58:36.255Z,994.60
2018-10-18T00:59:36.482Z,994.61
2018-10-18T01:00:36.709Z,994.60
2018-10-18T01:01:36.934Z,994.62
2018-10-18T01:02:37.162Z,994.61
2018-10-18T01:03:37.386Z,994.63
2018-10-18T01:04:37.614Z,994.67
2018-10-18T01:05:37.842Z,994.64
2018-10-18T01:06:38.068Z,994.63
2018-10-18T01:07:38.298Z,994.61
2018-10-18T01:08:38.531Z,994.62
2018-10-18T01:09:38.751Z,994.61
2018-10-18T01:10:38.977Z,994.61
2018-10-18T01:11:39.202Z,994.61
2018-10-18T01:12:39.487Z,994.58
2018-10-18T01:13:39.657Z,994.60
2018-10-18T01:14:39.882Z,994.55
2018-10-18T01:15:40.116Z,994.53
2018-10-18T01:16:40.333Z,994.53
2018-10-18T01:17:40.559Z,994.52
2018-10-18T01:18:40.788Z,994.53
2018-10-18T01:19:41.014Z,994.52
2018-10-18T01:20:41.242Z,994.50
2018-10-18T01:21:41.465Z,994.54
2018-10-18T01:22:41.691Z,994.50
2018-10-18T01:23:41.918Z,994.48
2018-10-18T01:24:42.147Z,994.48
2018-10-18T01:25:42.373Z,994.45
2018-10-18T01:26:42.597Z,994.45
2018-10-18T01:27:42.826Z,994.46
2018-10-18T01:28:43.050Z,994.48
2018-10-18T01:29:43.281Z,994.46
2018-10-18T01:30:43.508Z,994.44
2018-10-18T01:31:43.735Z,994.46
2018-10-18T01:32:43.960Z,994.46
2018-10-18T01:33:44.188Z,994.44
2018-10-18T01:34:44.411Z,994.44
2018-10-18T01:35:44.635Z,994.45
2018-10-18T01:36:44.865Z,994.47
2018-10-18T01:37:45.092Z,994.43
2018-10-18T01:38:45.319Z,994.45
2018-10-18T01:39:45.545Z,994.50
2018-10-18T01:40:45.772Z,994.47
2018-10-18T01:41:46.001Z,994.48
2018-10-18T01:42:46.227Z,994.49
2018-10-18T01:43:46.452Z,994.44
2018-10-18T01:44:46.682Z,994.49
2018-10-18T01:45:46.906Z,994.47
2018-10-18T01:46:47.133Z,994.42
2018-10-18T01:47:47.360Z,994.48
2018-10-18T01:48:47.586Z,994.49
2018-10-18T01:49:47.813Z,994.50
2018-10-18T01:50:48.046Z,994.49
2018-10-18T01:51:48.266Z,994.51
2018-10-18T01:52:48.492Z,994.52
2018-10-18T01:53:48.718Z,994.48
2018-10-18T01:54:48.943Z,994.49
2018-10-18T01:55:49.171Z,994.48
2018-10-18T01:56:49.397Z,994.47
2018-10-18T01:57:49.625Z,994.49
2018-10-18T01:58:49.851Z,994.49
2018-10-18T01:59:50.076Z,994.49
2018-10-18T02:00:50.301Z,994.49
2018-10-18T02:01:50.527Z,994.49
2018-10-18T02:02:50.754Z,994.47
2018-10-18T02:03:50.983Z,994.45
2018-10-18T02:04:51.209Z,994.49
2018-10-18T02:05:51.441Z,994.46
2018-10-18T02:06:51.664Z,994.45
2018-10-18T02:07:51.930Z,994.44
2018-10-18T02:08:52.116Z,994.43
2018-10-18T02:09:52.340Z,994.41
2018-10-18T02:10:52.584Z,994.40
2018-10-18T02:11:52.840Z,994.40
2018-10-18T02:12:53.018Z,994.41
2018-10-18T02:13:53.248Z,994.41
2018-10-18T02:14:53.471Z,994.39
2018-10-18T02:15:53.721Z,994.40
2018-10-18T02:16:53.922Z,994.41
2018-10-18T02:17:54.165Z,994.41
2018-10-18T02:18:54.394Z,994.45
2018-10-18T02:19:54.608Z,994.42
2018-10-18T02:20:54.838Z,994.44
2018-10-18T02:21:55.062Z,994.41
2018-10-18T02:22:55.288Z,994.43
2018-10-18T02:23:55.549Z,994.45
2018-10-18T02:24:55.763Z,994.44
2018-10-18T02:25:55.965Z,994.43
2018-10-18T02:26:56.191Z,994.43
2018-10-18T02:27:56.425Z,994.47
2018-10-18T02:28:56.647Z,994.44
2018-10-18T02:29:56.889Z,994.50
2018-10-18T02:30:57.093Z,994.44
2018-10-18T02:31:57.323Z,994.49
2018-10-18T02:32:57.548Z,994.46
2018-10-18T02:33:57.775Z,994.46
2018-10-18T02:34:58.000Z,994.44
2018-10-18T02:35:58.262Z,994.42
2018-10-18T02:36:58.455Z,994.45
2018-10-18T02:37:58.680Z,994.41
2018-10-18T02:38:58.905Z,994.45
2018-10-18T02:39:59.133Z,994.42
2018-10-18T02:40:59.362Z,994.42
2018-10-18T02:41:59.646Z,994.43
2018-10-18T02:42:59.817Z,994.40
2018-10-18T02:44:00.044Z,994.43
2018-10-18T02:45:00.274Z,994.39
2018-10-18T02:46:00.498Z,994.42
2018-10-18T02:47:00.733Z,994.40
2018-10-18T02:48:00.961Z,994.38
2018-10-18T02:49:01.182Z,994.39
2018-10-18T02:50:01.441Z,994.38
2018-10-18T02:51:01.633Z,994.40
2018-10-18T02:52:01.863Z,994.38
2018-10-18T02:53:02.088Z,994.40
2018-10-18T02:54:02.390Z,994.38
2018-10-18T02:55:02.542Z,994.40
2018-10-18T02:56:02.770Z,994.38
2018-10-18T02:57:02.998Z,994.39
2018-10-18T02:58:03.224Z,994.35
2018-10-18T02:59:03.453Z,994.34
2018-10-18T03:00:03.732Z,994.35
2018-10-18T03:01:03.906Z,994.34
2018-10-18T03:02:04.134Z,994.35
2018-10-18T03:03:04.362Z,994.37
2018-10-18T03:04:04.588Z,994.33
2018-10-18T03:05:04.814Z,994.36
2018-10-18T03:06:05.070Z,994.38
2018-10-18T03:07:05.269Z,994.37
2018-10-18T03:08:05.496Z,994.40
2018-10-18T03:09:05.725Z,994.40
2018-10-18T03:10:05.950Z,994.42
2018-10-18T03:11:06.185Z,994.44
2018-10-18T03:12:06.433Z,994.44
2018-10-18T03:13:06.633Z,994.46
2018-10-18T03:14:06.861Z,994.45
2018-10-18T03:15:07.087Z,994.46
2018-10-18T03:16:07.340Z,994.48
2018-10-18T03:17:07.540Z,994.48
2018-10-18T03:18:07.805Z,994.47
2018-10-18T03:19:07.995Z,994.51
2018-10-18T03:20:08.224Z,994.52
2018-10-18T03:21:08.451Z,994.51
2018-10-18T03:22:08.675Z,994.53
2018-10-18T03:23:08.903Z,994.48
2018-10-18T03:24:09.169Z,994.50
2018-10-18T03:25:09.355Z,994.50
2018-10-18T03:26:09.585Z,994.49
2018-10-18T03:27:09.810Z,994.52
2018-10-18T03:28:10.039Z,994.51
2018-10-18T03:29:10.265Z,994.49
2018-10-18T03:30:10.605Z,994.52
2018-10-18T03:31:10.736Z,994.46
2018-10-18T03:32:10.947Z,994.52
2018-10-18T03:33:11.173Z,994.52
2018-10-18T03:34:11.401Z,994.51
2018-10-18T03:35:11.626Z,994.52
2018-10-18T03:36:11.916Z,994.50
2018-10-18T03:37:12.081Z,994.52
2018-10-18T03:38:12.307Z,994.50
2018-10-18T03:39:12.537Z,994.51
2018-10-18T03:40:12.765Z,994.54
2018-10-18T03:41:13.006Z,994.55
2018-10-18T03:42:13.253Z,994.55
2018-10-18T03:43:13.443Z,994.60
2018-10-18T03:44:13.670Z,994.58
2018-10-18T03:45:13.897Z,994.57
2018-10-18T03:46:14.126Z,994.55
2018-10-18T03:47:14.364Z,994.60
2018-10-18T03:48:14.630Z,994.62
2018-10-18T03:49:14.807Z,994.63
2018-10-18T03:50:15.031Z,994.63
2018-10-18T03:51:15.267Z,994.64
2018-10-18T03:52:15.488Z,994.63
2018-10-18T03:53:15.717Z,994.62
2018-10-18T03:54:16.029Z,994.62
2018-10-18T03:55:16.168Z,994.61
2018-10-18T03:56:16.391Z,994.58
2018-10-18T03:57:16.619Z,994.58
2018-10-18T03:58:16.846Z,994.64
2018-10-18T03:59:17.071Z,994.63
2018-10-18T04:00:17.390Z,994.65
2018-10-18T04:01:17.525Z,994.63
2018-10-18T04:02:17.757Z,994.70
2018-10-18T04:03:17.984Z,994.72
2018-10-18T04:04:18.211Z,994.73
2018-10-18T04:05:18.443Z,994.71
2018-10-18T04:06:18.792Z,994.72
2018-10-18T04:07:18.897Z,994.71
2018-10-18T04:08:19.127Z,994.66
2018-10-18T04:09:19.354Z,994.68
2018-10-18T04:10:19.580Z,994.67
2018-10-18T04:11:19.809Z,994.64
2018-10-18T04:12:20.144Z,994.66
2018-10-18T04:13:20.332Z,994.64
2018-10-18T04:14:20.488Z,994.70
2018-10-18T04:15:20.716Z,994.68
2018-10-18T04:16:20.942Z,994.69
2018-10-18T04:17:21.171Z,994.70
2018-10-18T04:18:21.434Z,994.72
2018-10-18T04:19:21.625Z,994.73
2018-10-18T04:20:21.851Z,994.71
2018-10-18T04:21:22.078Z,994.75
2018-10-18T04:22:22.310Z,994.71
2018-10-18T04:23:22.535Z,994.69
2018-10-18T04:24:22.762Z,994.70
2018-10-18T04:25:23.013Z,994.73
2018-10-18T04:26:23.217Z,994.70
2018-10-18T04:27:23.445Z,994.70
2018-10-18T04:28:23.672Z,994.69
2018-10-18T04:29:23.904Z,994.70
2018-10-18T04:30:24.121Z,994.69
2018-10-18T04:31:24.357Z,994.68
2018-10-18T04:32:24.579Z,994.72
2018-10-18T04:33:24.805Z,994.70
2018-10-18T04:34:25.033Z,994.71
2018-10-18T04:35:25.259Z,994.71
2018-10-18T04:36:25.488Z,994.75
2018-10-18T04:37:25.735Z,994.75
2018-10-18T04:38:25.942Z,994.77
2018-10-18T04:39:26.167Z,994.78
2018-10-18T04:40:26.394Z,994.79
2018-10-18T04:41:26.622Z,994.79
2018-10-18T04:42:26.849Z,994.82
2018-10-18T04:43:27.079Z,994.83
2018-10-18T04:44:27.301Z,994.87
2018-10-18T04:45:27.530Z,994.89
2018-10-18T04:46:27.757Z,994.90
2018-10-18T04:47:28.086Z,994.89
2018-10-18T04:48:28.332Z,994.90
2018-10-18T04:49:28.440Z,994.89
2018-10-18T04:50:28.669Z,994.91
2018-10-18T04:51:28.891Z,994.96
2018-10-18T04:52:29.119Z,994.90
2018-10-18T04:53:29.346Z,994.93
2018-10-18T04:54:29.572Z,994.95
2018-10-18T04:55:29.801Z,994.97
2018-10-18T04:56:30.027Z,994.95
2018-10-18T04:57:30.256Z,994.94
2018-10-18T04:58:30.479Z,994.97
2018-10-18T04:59:30.707Z,995.01
2018-10-18T05:00:30.935Z,995.03
2018-10-18T05:01:31.232Z,995.01
2018-10-18T05:02:31.430Z,995.05
2018-10-18T05:03:31.615Z,995.05
2018-10-18T05:04:31.847Z,995.10
2018-10-18T05:05:32.069Z,995.06
2018-10-18T05:06:32.297Z,995.09
2018-10-18T05:07:32.521Z,995.09
2018-10-18T05:08:32.752Z,995.10
2018-10-18T05:09:32.977Z,995.13
2018-10-18T05:10:33.204Z,995.08
2018-10-18T05:11:33.432Z,995.14
2018-10-18T05:12:33.687Z,995.16
2018-10-18T05:13:33.884Z,995.13
2018-10-18T05:14:34.115Z,995.19
2018-10-18T05:15:34.338Z,995.18
2018-10-18T05:16:34.565Z,995.22
2018-10-18T05:17:34.786Z,995.22
2018-10-18T05:18:35.016Z,995.21
2018-10-18T05:19:35.241Z,995.20
2018-10-18T05:20:35.468Z,995.28
2018-10-18T05:21:35.710Z,995.23
2018-10-18T05:22:35.940Z,995.19
2018-10-18T05:23:36.203Z,995.25
2018-10-18T05:24:36.396Z,995.25
2018-10-18T05:25:36.703Z,995.23
2018-10-18T05:26:36.856Z,995.27
2018-10-18T05:27:37.083Z,995.26
2018-10-18T05:28:37.312Z,995.26
2018-10-18T05:29:37.541Z,995.30
2018-10-18T05:30:37.766Z,995.29
2018-10-18T05:31:38.091Z,995.30
2018-10-18T05:32:38.232Z,995.34
2018-10-18T05:33:38.451Z,995.34
2018-10-18T05:34:38.678Z,995.34
2018-10-18T05:35:38.907Z,995.37
2018-10-18T05:36:39.131Z,995.37
2018-10-18T05:37:39.380Z,995.41
2018-10-18T05:38:39.585Z,995.40
2018-10-18T05:39:39.814Z,995.40
2018-10-18T05:40:40.041Z,995.39
2018-10-18T05:41:40.267Z,995.47
2018-10-18T05:42:40.493Z,995.46
2018-10-18T05:43:40.719Z,995.42
2018-10-18T05:44:40.947Z,995.47
2018-10-18T05:45:41.172Z,995.51
2018-10-18T05:46:41.424Z,995.48
2018-10-18T05:47:41.627Z,995.50
2018-10-18T05:48:41.856Z,995.54
2018-10-18T05:49:42.083Z,995.55
2018-10-18T05:50:42.308Z,995.57
2018-10-18T05:51:42.540Z,995.57
2018-10-18T05:52:42.760Z,995.59
2018-10-18T05:53:43.033Z,995.60
2018-10-18T05:54:43.215Z,995.64
2018-10-18T05:55:43.450Z,995.65
2018-10-18T05:56:43.676Z,995.65
2018-10-18T05:57:43.898Z,995.67
2018-10-18T05:58:44.125Z,995.64
2018-10-18T05:59:44.351Z,995.69
2018-10-18T06:00:44.577Z,995.68
2018-10-18T06:01:44.807Z,995.70
2018-10-18T06:02:45.035Z,995.73
2018-10-18T06:03:45.261Z,995.73
2018-10-18T06:04:45.487Z,995.76
2018-10-18T06:05:45.713Z,995.77
2018-10-18T06:06:45.940Z,995.78
2018-10-18T06:07:46.167Z,995.81
2018-10-18T06:08:46.398Z,995.83
2018-10-18T06:09:46.684Z,995.87
2018-10-18T06:10:46.851Z,995.83
2018-10-18T06:11:47.079Z,995.86
2018-10-18T06:12:47.303Z,995.87
2018-10-18T06:13:47.532Z,995.87
2018-10-18T06:14:47.759Z,995.93
2018-10-18T06:15:47.982Z,995.90
2018-10-18T06:16:48.211Z,995.92
2018-10-18T06:17:48.437Z,995.95
2018-10-18T06:18:48.668Z,995.97
2018-10-18T06:19:48.893Z,995.98
2018-10-18T06:20:49.122Z,996.05
2018-10-18T06:21:49.346Z,996.03
2018-10-18T06:22:49.661Z,996.01
2018-10-18T06:23:49.801Z,996.02
2018-10-18T06:24:50.031Z,996.05
2018-10-18T06:25:50.258Z,996.04
2018-10-18T06:26:50.485Z,996.03
2018-10-18T06:27:50.713Z,996.02
2018-10-18T06:28:50.938Z,996.01
2018-10-18T06:29:51.167Z,996.04
2018-10-18T06:30:51.394Z,996.04
2018-10-18T06:31:51.618Z,996.01
2018-10-18T06:32:51.861Z,996.07
2018-10-18T06:33:52.074Z,996.05
2018-10-18T06:34:52.326Z,996.01
2018-10-18T06:35:52.529Z,996.07
2018-10-18T06:36:52.813Z,996.03
2018-10-18T06:37:52.982Z,996.06
2018-10-18T06:38:53.212Z,996.06
2018-10-18T06:39:53.439Z,996.06
2018-10-18T06:40:53.685Z,996.05
2018-10-18T06:41:53.894Z,996.09
2018-10-18T06:42:54.163Z,996.10
2018-10-18T06:43:54.347Z,996.08
2018-10-18T06:44:54.573Z,996.11
2018-10-18T06:45:54.799Z,996.11
2018-10-18T06:46:55.103Z,996.11
2018-10-18T06:47:55.457Z,996.16
2018-10-18T06:48:55.566Z,996.14
2018-10-18T06:49:55.720Z,996.17
2018-10-18T06:50:55.934Z,996.22
2018-10-18T06:51:56.162Z,996.23
2018-10-18T06:52:56.391Z,996.23
2018-10-18T06:53:56.654Z,996.22
2018-10-18T06:54:56.893Z,996.28
2018-10-18T06:55:57.069Z,996.25
2018-10-18T06:56:57.295Z,996.29
2018-10-18T06:57:57.548Z,996.28
2018-10-18T06:58:57.746Z,996.28
2018-10-18T06:59:58.033Z,996.27
2018-10-18T07:00:58.192Z,996.28
2018-10-18T07:01:58.426Z,996.29
2018-10-18T07:02:58.651Z,996.28
2018-10-18T07:03:58.879Z,996.26
2018-10-18T07:04:59.102Z,996.30
2018-10-18T07:05:59.352Z,996.34
2018-10-18T07:06:59.563Z,996.37
2018-10-18T07:07:59.786Z,996.40
2018-10-18T07:09:00.111Z,996.37
2018-10-18T07:10:00.236Z,996.43
2018-10-18T07:11:00.627Z,996.45
2018-10-18T07:12:00.742Z,996.45
2018-10-18T07:13:00.911Z,996.46
2018-10-18T07:14:01.146Z,996.49
2018-10-18T07:15:01.370Z,996.45
2018-10-18T07:16:01.601Z,996.45
2018-10-18T07:17:01.819Z,996.44
2018-10-18T07:18:02.069Z,996.41
2018-10-18T07:19:02.281Z,996.42
2018-10-18T07:20:02.504Z,996.39
2018-10-18T07:21:02.731Z,996.43
2018-10-18T07:22:02.957Z,996.47
2018-10-18T07:23:03.186Z,996.46
2018-10-18T07:24:03.452Z,996.49
2018-10-18T07:25:03.653Z,996.48
2018-10-18T07:26:03.867Z,996.52
2018-10-18T07:27:04.095Z,996.52
2018-10-18T07:28:04.323Z,996.51
2018-10-18T07:29:04.545Z,996.50
2018-10-18T07:30:04.796Z,996.50
2018-10-18T07:31:05.001Z,996.51
2018-10-18T07:32:05.232Z,996.48
2018-10-18T07:33:05.455Z,996.50
2018-10-18T07:34:05.682Z,996.52
2018-10-18T07:35:06.013Z,996.52
2018-10-18T07:36:06.189Z,996.54
2018-10-18T07:37:06.361Z,996.60
2018-10-18T07:38:06.588Z,996.60
2018-10-18T07:39:06.817Z,996.60
2018-10-18T07:40:07.043Z,996.62
2018-10-18T07:41:07.332Z,996.67
2018-10-18T07:42:07.562Z,996.63
2018-10-18T07:43:07.727Z,996.67
2018-10-18T07:44:07.954Z,996.65
2018-10-18T07:45:08.178Z,996.64
2018-10-18T07:46:08.404Z,996.63
2018-10-18T07:47:08.636Z,996.63
2018-10-18T07:48:08.956Z,996.62
2018-10-18T07:49:09.080Z,996.65
2018-10-18T07:50:09.306Z,996.62
2018-10-18T07:51:09.531Z,996.68
2018-10-18T07:52:09.760Z,996.67
2018-10-18T07:53:10.065Z,996.69
2018-10-18T07:54:10.225Z,996.67
2018-10-18T07:55:10.447Z,996.70
2018-10-18T07:56:10.668Z,996.72
2018-10-18T07:57:10.895Z,996.71
2018-10-18T07:58:11.121Z,996.74
2018-10-18T07:59:11.350Z,996.76
2018-10-18T08:00:11.693Z,996.71
2018-10-18T08:01:11.809Z,996.71
2018-10-18T08:02:12.036Z,996.72
2018-10-18T08:03:12.271Z,996.74
2018-10-18T08:04:12.491Z,996.73
2018-10-18T08:05:12.719Z,996.76
2018-10-18T08:06:12.948Z,996.71
2018-10-18T08:07:13.246Z,996.70
2018-10-18T08:08:13.406Z,996.76
2018-10-18T08:09:13.634Z,996.75
2018-10-18T08:10:13.864Z,996.76
2018-10-18T08:11:14.153Z,996.73
2018-10-18T08:12:14.321Z,996.71
2018-10-18T08:13:14.587Z,996.74
2018-10-18T08:14:14.790Z,996.74
2018-10-18T08:15:14.999Z,996.72
2018-10-18T08:16:15.228Z,996.72
2018-10-18T08:17:15.471Z,996.74
2018-10-18T08:18:15.683Z,996.73
2018-10-18T08:19:15.994Z,996.71
2018-10-18T08:20:16.138Z,996.68
2018-10-18T08:21:16.367Z,996.73
2018-10-18T08:22:16.596Z,996.73
2018-10-18T08:23:16.827Z,996.76
2018-10-18T08:24:17.052Z,996.70
2018-10-18T08:25:17.344Z,996.71
2018-10-18T08:26:17.507Z,996.68
2018-10-18T08:27:17.737Z,996.70
2018-10-18T08:28:17.967Z,996.71
2018-10-18T08:29:18.195Z,996.70
2018-10-18T08:30:18.422Z,996.69
2018-10-18T08:31:18.805Z,996.65
2018-10-18T08:32:18.885Z,996.62
2018-10-18T08:33:19.110Z,996.58
2018-10-18T08:34:19.340Z,996.62
2018-10-18T08:35:19.572Z,996.60
2018-10-18T08:36:19.799Z,996.59
2018-10-18T08:37:20.030Z,996.57
2018-10-18T08:38:20.289Z,996.61
2018-10-18T08:39:20.477Z,996.58
2018-10-18T08:40:20.705Z,996.60
2018-10-18T08:41:20.933Z,996.56
2018-10-18T08:42:21.162Z,996.60
2018-10-18T08:43:21.388Z,996.56
2018-10-18T08:44:21.647Z,996.56
2018-10-18T08:45:21.845Z,996.58
2018-10-18T08:46:22.075Z,996.58
2018-10-18T08:47:22.300Z,996.57
2018-10-18T08:48:22.527Z,996.55
2018-10-18T08:49:22.757Z,996.54
2018-10-18T08:50:22.984Z,996.54
2018-10-18T08:51:23.215Z,996.54
2018-10-18T08:52:23.442Z,996.55
2018-10-18T08:53:23.667Z,996.57
2018-10-18T08:54:23.918Z,996.54
2018-10-18T08:55:24.184Z,996.59
2018-10-18T08:56:24.351Z,996.61
2018-10-18T08:57:24.581Z,996.57
2018-10-18T08:58:24.811Z,996.56
2018-10-18T08:59:25.094Z,996.54
2018-10-18T09:00:25.266Z,996.54
2018-10-18T09:01:25.495Z,996.55
2018-10-18T09:02:25.728Z,996.54
2018-10-18T09:03:25.952Z,996.56
2018-10-18T09:04:26.216Z,996.53
2018-10-18T09:05:26.444Z,996.53
2018-10-18T09:06:26.672Z,996.50
2018-10-18T09:07:26.899Z,996.49
2018-10-18T09:08:27.127Z,996.52
2018-10-18T09:09:27.356Z,996.52
2018-10-18T09:10:27.585Z,996.51
2018-10-18T09:11:27.813Z,996.52
2018-10-18T09:12:28.043Z,996.54
2018-10-18T09:13:28.272Z,996.55
2018-10-18T09:14:28.496Z,996.55
2018-10-18T09:15:28.728Z,996.54
2018-10-18T09:16:28.954Z,996.59
2018-10-18T09:17:29.185Z,996.58
2018-10-18T09:18:29.416Z,996.61
2018-10-18T09:19:29.644Z,996.59
2018-10-18T09:20:29.873Z,996.61
2018-10-18T09:21:30.103Z,996.59
2018-10-18T09:22:30.335Z,996.60
2018-10-18T09:23:30.563Z,996.63
2018-10-18T09:24:30.791Z,996.60
2018-10-18T09:25:31.023Z,996.59
2018-10-18T09:26:31.249Z,996.63
2018-10-18T09:27:31.479Z,996.61
2018-10-18T09:28:31.707Z,996.68
2018-10-18T09:29:31.938Z,996.61
2018-10-18T09:30:32.185Z,996.64
2018-10-18T09:31:32.396Z,996.64
2018-10-18T09:32:32.625Z,996.61
2018-10-18T09:33:32.852Z,996.58
2018-10-18T09:34:33.081Z,996.59
2018-10-18T09:35:33.313Z,996.59
2018-10-18T09:36:33.542Z,996.60
2018-10-18T09:37:33.767Z,996.63
2018-10-18T09:38:34.093Z,996.63
2018-10-18T09:39:34.224Z,996.62
2018-10-18T09:40:34.452Z,996.60
2018-10-18T09:41:34.683Z,996.60
2018-10-18T09:42:34.913Z,996.59
2018-10-18T09:43:35.140Z,996.58
2018-10-18T09:44:35.409Z,996.57
2018-10-18T09:45:35.601Z,996.57
2018-10-18T09:46:35.815Z,996.60
2018-10-18T09:47:36.064Z,996.58
2018-10-18T09:48:36.295Z,996.52
2018-10-18T09:49:36.525Z,996.54
2018-10-18T09:50:36.753Z,996.55
2018-10-18T09:51:36.982Z,996.54
2018-10-18T09:52:37.211Z,996.53
2018-10-18T09:53:37.439Z,996.54
2018-10-18T09:54:37.670Z,996.56
2018-10-18T09:55:37.953Z,996.51
2018-10-18T09:56:38.128Z,996.54
2018-10-18T09:57:38.358Z,996.53
2018-10-18T09:58:38.586Z,996.58
2018-10-18T09:59:38.815Z,996.58
2018-10-18T10:00:39.047Z,996.57
2018-10-18T10:01:39.276Z,996.57
2018-10-18T10:02:39.507Z,996.59
2018-10-18T10:03:39.734Z,996.63
2018-10-18T10:04:39.967Z,996.63
2018-10-18T10:05:40.202Z,996.64
2018-10-18T10:06:40.425Z,996.62
2018-10-18T10:07:40.657Z,996.66
2018-10-18T10:08:40.888Z,996.65
2018-10-18T10:09:41.122Z,996.60
2018-10-18T10:10:41.349Z,996.59
2018-10-18T10:11:41.590Z,996.60
2018-10-18T10:12:41.810Z,996.60
2018-10-18T10:13:42.080Z,996.57
2018-10-18T10:14:42.273Z,996.58
2018-10-18T10:15:42.504Z,996.58
2018-10-18T10:16:42.735Z,996.57
2018-10-18T10:17:43.026Z,996.58
2018-10-18T10:18:43.276Z,996.59
2018-10-18T10:19:43.466Z,996.55
2018-10-18T10:20:43.643Z,996.57
2018-10-18T10:21:43.876Z,996.55
2018-10-18T10:22:44.100Z,996.52
2018-10-18T10:23:44.330Z,996.55
2018-10-18T10:24:44.670Z,996.54
2018-10-18T10:25:44.792Z,996.54
2018-10-18T10:26:45.018Z,996.54
2018-10-18T10:27:45.252Z,996.51
2018-10-18T10:28:45.483Z,996.53
2018-10-18T10:29:45.714Z,996.48
2018-10-18T10:30:45.939Z,996.48
2018-10-18T10:31:46.170Z,996.47
2018-10-18T10:32:46.405Z,996.47
2018-10-18T10:33:46.628Z,996.47
2018-10-18T10:34:46.855Z,996.45
2018-10-18T10:35:47.176Z,996.45
2018-10-18T10:36:47.306Z,996.45
2018-10-18T10:37:47.536Z,996.46
2018-10-18T10:38:47.771Z,996.44
2018-10-18T10:39:48.001Z,996.43
2018-10-18T10:40:48.229Z,996.42
2018-10-18T10:41:48.464Z,996.44
2018-10-18T10:42:48.790Z,996.41
2018-10-18T10:43:48.923Z,996.46
2018-10-18T10:44:49.215Z,996.48
2018-10-18T10:45:49.468Z,996.44
2018-10-18T10:46:49.605Z,996.47
2018-10-18T10:47:49.835Z,996.44
2018-10-18T10:48:50.064Z,996.44
2018-10-18T10:49:50.295Z,996.42
2018-10-18T10:50:50.525Z,996.44
2018-10-18T10:51:50.757Z,996.46
2018-10-18T10:52:50.986Z,996.47
2018-10-18T10:53:51.217Z,996.41
2018-10-18T10:54:51.449Z,996.44
2018-10-18T10:55:51.684Z,996.44
2018-10-18T10:56:51.911Z,996.45
2018-10-18T10:57:52.197Z,996.42
2018-10-18T10:58:52.376Z,996.41
2018-10-18T10:59:52.610Z,996.41
2018-10-18T11:00:52.832Z,996.41
2018-10-18T11:01:53.096Z,996.41
2018-10-18T11:02:53.342Z,996.40
2018-10-18T11:03:53.533Z,996.40
2018-10-18T11:04:53.760Z,996.41
2018-10-18T11:05:54.030Z,996.38
2018-10-18T11:06:54.214Z,996.39
2018-10-18T11:07:54.449Z,996.43
2018-10-18T11:08:54.697Z,996.40
2018-10-18T11:09:54.904Z,996.37
2018-10-18T11:10:55.137Z,996.38
2018-10-18T11:11:55.447Z,996.35
2018-10-18T11:12:55.588Z,996.33
2018-10-18T11:13:55.840Z,996.33
2018-10-18T11:14:56.079Z,996.32
2018-10-18T11:15:56.277Z,996.33
2018-10-18T11:16:56.578Z,996.31
2018-10-18T11:17:56.757Z,996.30
2018-10-18T11:18:56.963Z,996.31
2018-10-18T11:19:57.247Z,996.32
2018-10-18T11:20:57.480Z,996.29
2018-10-18T11:21:57.652Z,996.29
2018-10-18T11:22:57.885Z,996.26
2018-10-18T11:23:58.114Z,996.27
2018-10-18T11:24:58.343Z,996.30
2018-10-18T11:25:58.603Z,996.29
2018-10-18T11:26:58.835Z,996.32
2018-10-18T11:27:59.035Z,996.28
2018-10-18T11:28:59.392Z,996.30
2018-10-18T11:29:59.557Z,996.27
2018-10-18T11:30:59.744Z,996.25
2018-10-18T11:31:59.996Z,996.25
2018-10-18T11:33:00.238Z,996.27
2018-10-18T11:34:00.433Z,996.29
2018-10-18T11:35:00.664Z,996.25
2018-10-18T11:36:00.949Z,996.24
2018-10-18T11:37:01.127Z,996.26
2018-10-18T11:38:01.380Z,996.26
2018-10-18T11:39:01.585Z,996.25
2018-10-18T11:40:01.818Z,996.28
2018-10-18T11:41:02.049Z,996.29
2018-10-18T11:42:02.368Z,996.25
2018-10-18T11:43:02.516Z,996.25
2018-10-18T11:44:02.764Z,996.27
2018-10-18T11:45:02.974Z,996.24
2018-10-18T11:46:03.202Z,996.28
2018-10-18T11:47:03.433Z,996.25
2018-10-18T11:48:03.700Z,996.28
2018-10-18T11:49:03.894Z,996.24
2018-10-18T11:50:04.146Z,996.28
2018-10-18T11:51:04.362Z,996.30
2018-10-18T11:52:04.688Z,996.28
2018-10-18T11:53:04.818Z,996.28
2018-10-18T11:54:05.107Z,996.30
2018-10-18T11:55:05.277Z,996.32
2018-10-18T11:56:05.609Z,996.35
2018-10-18T11:57:05.751Z,996.36
2018-10-18T11:58:05.982Z,996.36
2018-10-18T11:59:06.257Z,996.33
2018-10-18T12:00:06.424Z,996.34
2018-10-18T12:01:06.673Z,996.36
2018-10-18T12:02:06.956Z,996.35
2018-10-18T12:03:07.268Z,996.35
2018-10-18T12:04:07.465Z,996.33
2018-10-18T12:05:07.801Z,996.33
2018-10-18T12:06:07.871Z,996.34
2018-10-18T12:07:08.052Z,996.36
2018-10-18T12:08:08.313Z,996.34
2018-10-18T12:09:08.512Z,996.35
2018-10-18T12:10:08.754Z,996.34
2018-10-18T12:11:09.067Z,996.36
2018-10-18T12:12:09.203Z,996.37
2018-10-18T12:13:09.432Z,996.29
2018-10-18T12:14:09.691Z,996.34
2018-10-18T12:15:09.894Z,996.41
2018-10-18T12:16:10.128Z,996.39
2018-10-18T12:17:10.442Z,996.31
2018-10-18T12:18:10.583Z,996.33
2018-10-18T12:19:10.841Z,996.41
2018-10-18T12:20:11.085Z,996.34
2018-10-18T12:21:11.276Z,996.42
2018-10-18T12:22:11.510Z,996.35
2018-10-18T12:23:11.759Z,996.37
2018-10-18T12:24:11.974Z,996.36
2018-10-18T12:25:12.205Z,996.35
2018-10-18T12:26:12.470Z,996.38
2018-10-18T12:27:12.662Z,996.36
2018-10-18T12:28:12.893Z,996.40
2018-10-18T12:29:13.195Z,996.38
2018-10-18T12:30:13.356Z,996.39
2018-10-18T12:31:13.582Z,996.39